sensor_id;sensor_type;location;lat;lon;timestamp;pressure;altitude;pressure_sealevel;temperature;humidity
12475;BME280;6302;42.624;23.334;2022-11-14T00:00:33;94343.44;;;5.62;100.00
12475;BME280;6302;42.624;23.334;2022-11-14T00:03:00;94357.91;;;5.56;100.00
12475;BME280;6302;42.624;23.334;2022-11-14T00:05:28;94343.47;;;5.50;100.00
12475;BME280;6302;42.624;23.334;2022-11-14T00:07:55;94345.66;;;5.48;100.00
12475;BME280;6302;42.624;23.334;2022-11-14T00:10:22;94339.34;;;5.37;100.00
12475;BME280;6302;42.624;23.334;2022-11-14T00:12:50;94346.22;;;5.42;100.00
12475;BME280;6302;42.624;23.334;2022-11-14T00:15:18;94343.94;;;5.40;100.00
12475;BME280;6302;42.624;23.334;2022-11-14T00:17:45;94342.41;;;5.39;100.00
12475;BME280;6302;42.624;23.334;2022-11-14T00:20:12;94325.78;;;5.35;100.00
12475;BME280;6302;42.624;23.334;2022-11-14T00:22:39;94341.75;;;5.42;100.00
12475;BME280;6302;42.624;23.334;2022-11-14T00:25:06;94341.97;;;5.37;100.00
12475;BME280;6302;42.624;23.334;2022-11-14T00:27:33;94340.00;;;5.34;100.00
12475;BME280;6302;42.624;23.334;2022-11-14T00:30:02;94350.44;;;5.31;100.00
12475;BME280;6302;42.624;23.334;2022-11-14T00:32:30;94351.16;;;5.31;100.00
12475;BME280;6302;42.624;23.334;2022-11-14T00:34:57;94341.00;;;5.30;100.00
12475;BME280;6302;42.624;23.334;2022-11-14T00:37:23;94340.16;;;5.25;100.00
12475;BME280;6302;42.624;23.334;2022-11-14T00:39:51;94339.69;;;5.23;100.00
12475;BME280;6302;42.624;23.334;2022-11-14T00:42:18;94343.44;;;5.22;100.00
12475;BME280;6302;42.624;23.334;2022-11-14T00:44:44;94346.72;;;5.19;100.00
12475;BME280;6302;42.624;23.334;2022-11-14T00:47:13;94326.94;;;5.10;100.00
12475;BME280;6302;42.624;23.334;2022-11-14T00:49:39;94349.00;;;5.21;100.00
12475;BME280;6302;42.624;23.334;2022-11-14T00:52:06;94341.13;;;5.21;100.00
12475;BME280;6302;42.624;23.334;2022-11-14T00:54:33;94340.25;;;5.17;100.00
12475;BME280;6302;42.624;23.334;2022-11-14T00:57:00;94336.34;;;5.11;100.00
12475;BME280;6302;42.624;23.334;2022-11-14T00:59:27;94333.72;;;5.11;100.00
12475;BME280;6302;42.624;23.334;2022-11-14T01:01:53;94332.06;;;5.06;100.00
12475;BME280;6302;42.624;23.334;2022-11-14T01:04:21;94326.72;;;5.03;100.00
12475;BME280;6302;42.624;23.334;2022-11-14T01:06:48;94329.66;;;5.01;100.00
12475;BME280;6302;42.624;23.334;2022-11-14T01:09:15;94323.75;;;5.04;100.00
12475;BME280;6302;42.624;23.334;2022-11-14T01:11:42;94327.81;;;5.02;100.00
12475;BME280;6302;42.624;23.334;2022-11-14T01:14:09;94329.34;;;5.03;100.00
12475;BME280;6302;42.624;23.334;2022-11-14T01:16:36;94332.75;;;5.03;100.00
12475;BME280;6302;42.624;23.334;2022-11-14T01:19:03;94324.63;;;4.96;100.00
12475;BME280;6302;42.624;23.334;2022-11-14T01:21:31;94331.75;;;5.08;100.00
12475;BME280;6302;42.624;23.334;2022-11-14T01:23:58;94332.59;;;5.12;100.00
12475;BME280;6302;42.624;23.334;2022-11-14T01:26:25;94320.66;;;5.14;100.00
12475;BME280;6302;42.624;23.334;2022-11-14T01:28:52;94320.25;;;5.12;100.00
12475;BME280;6302;42.624;23.334;2022-11-14T01:31:20;94314.88;;;5.09;100.00
12475;BME280;6302;42.624;23.334;2022-11-14T01:33:48;94314.44;;;5.07;100.00
12475;BME280;6302;42.624;23.334;2022-11-14T01:36:15;94310.19;;;5.02;100.00
12475;BME280;6302;42.624;23.334;2022-11-14T01:38:44;94296.66;;;4.88;100.00
12475;BME280;6302;42.624;23.334;2022-11-14T01:41:13;94301.34;;;4.95;100.00
12475;BME280;6302;42.624;23.334;2022-11-14T01:43:40;94305.50;;;4.96;100.00
12475;BME280;6302;42.624;23.334;2022-11-14T01:46:11;94304.31;;;4.93;100.00
12475;BME280;6302;42.624;23.334;2022-11-14T01:48:40;94307.94;;;4.89;100.00
12475;BME280;6302;42.624;23.334;2022-11-14T01:51:20;94298.16;;;4.89;100.00
12475;BME280;6302;42.624;23.334;2022-11-14T01:53:51;94297.41;;;4.89;100.00
12475;BME280;6302;42.624;23.334;2022-11-14T01:56:22;94292.16;;;4.89;100.00
12475;BME280;6302;42.624;23.334;2022-11-14T01:58:53;94294.78;;;4.89;100.00
12475;BME280;6302;42.624;23.334;2022-11-14T02:01:22;94296.66;;;4.88;100.00
12475;BME280;6302;42.624;23.334;2022-11-14T02:03:52;94291.41;;;4.88;100.00
12475;BME280;6302;42.624;23.334;2022-11-14T02:06:21;94283.09;;;4.86;100.00
12475;BME280;6302;42.624;23.334;2022-11-14T02:08:51;94278.50;;;4.83;100.00
12475;BME280;6302;42.624;23.334;2022-11-14T02:11:19;94284.19;;;4.85;100.00
12475;BME280;6302;42.624;23.334;2022-11-14T02:13:45;94280.78;;;4.85;100.00
12475;BME280;6302;42.624;23.334;2022-11-14T02:16:12;94270.19;;;4.81;100.00
12475;BME280;6302;42.624;23.334;2022-11-14T02:18:39;94269.97;;;4.86;100.00
12475;BME280;6302;42.624;23.334;2022-11-14T02:21:07;94272.59;;;4.86;100.00
12475;BME280;6302;42.624;23.334;2022-11-14T02:23:34;94276.41;;;4.89;100.00
12475;BME280;6302;42.624;23.334;2022-11-14T02:26:01;94285.81;;;4.90;100.00
12475;BME280;6302;42.624;23.334;2022-11-14T02:28:28;94282.94;;;4.95;100.00
12475;BME280;6302;42.624;23.334;2022-11-14T02:30:54;94284.81;;;4.94;100.00
12475;BME280;6302;42.624;23.334;2022-11-14T02:33:21;94280.31;;;4.95;100.00
12475;BME280;6302;42.624;23.334;2022-11-14T02:35:48;94284.91;;;4.98;100.00
12475;BME280;6302;42.624;23.334;2022-11-14T02:38:16;94283.38;;;4.97;100.00
12475;BME280;6302;42.624;23.334;2022-11-14T02:40:43;94282.94;;;4.95;100.00
12475;BME280;6302;42.624;23.334;2022-11-14T02:43:10;94279.47;;;4.91;100.00
12475;BME280;6302;42.624;23.334;2022-11-14T02:45:38;94284.72;;;4.91;100.00
12475;BME280;6302;42.624;23.334;2022-11-14T02:48:05;94271.16;;;4.89;100.00
12475;BME280;6302;42.624;23.334;2022-11-14T02:50:32;94273.25;;;4.83;100.00
12475;BME280;6302;42.624;23.334;2022-11-14T02:52:59;94275.44;;;4.81;100.00
12475;BME280;6302;42.624;23.334;2022-11-14T02:55:27;94264.16;;;4.81;100.00
12475;BME280;6302;42.624;23.334;2022-11-14T02:57:54;94261.84;;;4.79;100.00
12475;BME280;6302;42.624;23.334;2022-11-14T03:00:20;94260.44;;;4.82;100.00
12475;BME280;6302;42.624;23.334;2022-11-14T03:02:47;94267.22;;;4.83;100.00
12475;BME280;6302;42.624;23.334;2022-11-14T03:05:14;94263.50;;;4.84;100.00
12475;BME280;6302;42.624;23.334;2022-11-14T03:07:41;94253.53;;;4.77;100.00
12475;BME280;6302;42.624;23.334;2022-11-14T03:10:08;94264.72;;;4.86;100.00
12475;BME280;6302;42.624;23.334;2022-11-14T03:12:37;94257.25;;;4.88;100.00
12475;BME280;6302;42.624;23.334;2022-11-14T03:15:05;94272.59;;;4.86;100.00
12475;BME280;6302;42.624;23.334;2022-11-14T03:17:33;94255.28;;;4.85;100.00
12475;BME280;6302;42.624;23.334;2022-11-14T03:20:00;94265.03;;;4.85;100.00
12475;BME280;6302;42.624;23.334;2022-11-14T03:22:27;94261.53;;;4.81;100.00
12475;BME280;6302;42.624;23.334;2022-11-14T03:24:53;94264.81;;;4.78;100.00
12475;BME280;6302;42.624;23.334;2022-11-14T03:27:20;94264.38;;;4.76;100.00
12475;BME280;6302;42.624;23.334;2022-11-14T03:29:48;94259.38;;;4.71;100.00
12475;BME280;6302;42.624;23.334;2022-11-14T03:32:15;94256.97;;;4.66;100.00
12475;BME280;6302;42.624;23.334;2022-11-14T03:34:42;94255.66;;;4.59;100.00
12475;BME280;6302;42.624;23.334;2022-11-14T03:37:09;94257.19;;;4.60;100.00
12475;BME280;6302;42.624;23.334;2022-11-14T03:39:39;94248.66;;;4.64;100.00
12475;BME280;6302;42.624;23.334;2022-11-14T03:42:06;94247.78;;;4.59;100.00
12475;BME280;6302;42.624;23.334;2022-11-14T03:44:34;94244.94;;;4.52;100.00
12475;BME280;6302;42.624;23.334;2022-11-14T03:47:02;94252.50;;;4.54;100.00
12475;BME280;6302;42.624;23.334;2022-11-14T03:49:28;94255.00;;;4.50;100.00
12475;BME280;6302;42.624;23.334;2022-11-14T03:51:55;94259.41;;;4.46;100.00
12475;BME280;6302;42.624;23.334;2022-11-14T03:54:22;94246.59;;;4.45;100.00
12475;BME280;6302;42.624;23.334;2022-11-14T03:56:49;94263.97;;;4.49;100.00
12475;BME280;6302;42.624;23.334;2022-11-14T03:59:17;94250.41;;;4.47;100.00
12475;BME280;6302;42.624;23.334;2022-11-14T04:01:44;94257.84;;;4.45;100.00
12475;BME280;6302;42.624;23.334;2022-11-14T04:04:12;94227.25;;;4.25;100.00
12475;BME280;6302;42.624;23.334;2022-11-14T04:06:39;94254.69;;;4.40;100.00
12475;BME280;6302;42.624;23.334;2022-11-14T04:09:06;94254.38;;;4.41;100.00
12475;BME280;6302;42.624;23.334;2022-11-14T04:11:33;94254.59;;;4.36;100.00
12475;BME280;6302;42.624;23.334;2022-11-14T04:13:59;94245.19;;;4.35;100.00
12475;BME280;6302;42.624;23.334;2022-11-14T04:16:26;94224.63;;;4.13;100.00
12475;BME280;6302;42.624;23.334;2022-11-14T04:18:53;94251.75;;;4.29;100.00
12475;BME280;6302;42.624;23.334;2022-11-14T04:21:21;94252.84;;;4.28;100.00
12475;BME280;6302;42.624;23.334;2022-11-14T04:23:48;94258.72;;;4.25;100.00
12475;BME280;6302;42.624;23.334;2022-11-14T04:26:15;94248.25;;;4.25;100.00
12475;BME280;6302;42.624;23.334;2022-11-14T04:28:42;94248.25;;;4.25;100.00
12475;BME280;6302;42.624;23.334;2022-11-14T04:31:08;94246.25;;;4.22;100.00
12475;BME280;6302;42.624;23.334;2022-11-14T04:33:35;94247.38;;;4.21;100.00
12475;BME280;6302;42.624;23.334;2022-11-14T04:36:02;94240.59;;;4.20;100.00
12475;BME280;6302;42.624;23.334;2022-11-14T04:38:30;94236.44;;;4.19;100.00
12475;BME280;6302;42.624;23.334;2022-11-14T04:40:57;94238.41;;;4.22;100.00
12475;BME280;6302;42.624;23.334;2022-11-14T04:43:24;94241.47;;;4.24;100.00
12475;BME280;6302;42.624;23.334;2022-11-14T04:45:50;94240.50;;;4.29;100.00
12475;BME280;6302;42.624;23.334;2022-11-14T04:48:17;94241.34;;;4.33;100.00
12475;BME280;6302;42.624;23.334;2022-11-14T04:50:44;94242.34;;;4.40;100.00
12475;BME280;6302;42.624;23.334;2022-11-14T04:53:11;94239.06;;;4.43;100.00
12475;BME280;6302;42.624;23.334;2022-11-14T04:55:39;94244.41;;;4.47;100.00
12475;BME280;6302;42.624;23.334;2022-11-14T04:58:06;94231.28;;;4.47;100.00
12475;BME280;6302;42.624;23.334;2022-11-14T05:00:33;94231.38;;;4.50;100.00
12475;BME280;6302;42.624;23.334;2022-11-14T05:03:00;94233.03;;;4.43;100.00
12475;BME280;6302;42.624;23.334;2022-11-14T05:05:26;94228.13;;;4.41;100.00
12475;BME280;6302;42.624;23.334;2022-11-14T05:07:53;94229.97;;;4.41;100.00
12475;BME280;6302;42.624;23.334;2022-11-14T05:10:20;94226.94;;;4.39;100.00
12475;BME280;6302;42.624;23.334;2022-11-14T05:12:52;94234.56;;;4.44;100.00
12475;BME280;6302;42.624;23.334;2022-11-14T05:15:19;94236.44;;;4.43;100.00
12475;BME280;6302;42.624;23.334;2022-11-14T05:17:46;94238.72;;;4.45;100.00
12475;BME280;6302;42.624;23.334;2022-11-14T05:20:12;94248.22;;;4.49;100.00
12475;BME280;6302;42.624;23.334;2022-11-14T05:22:39;94245.72;;;4.53;100.00
12475;BME280;6302;42.624;23.334;2022-11-14T05:25:07;94253.16;;;4.51;100.00
12475;BME280;6302;42.624;23.334;2022-11-14T05:27:34;94250.09;;;4.49;100.00
12475;BME280;6302;42.624;23.334;2022-11-14T05:30:03;94257.09;;;4.45;100.00
12475;BME280;6302;42.624;23.334;2022-11-14T05:32:30;94255.56;;;4.44;100.00
12475;BME280;6302;42.624;23.334;2022-11-14T05:34:56;94251.75;;;4.41;100.00
12475;BME280;6302;42.624;23.334;2022-11-14T05:37:23;94257.31;;;4.40;100.00
12475;BME280;6302;42.624;23.334;2022-11-14T05:39:50;94259.84;;;4.36;100.00
12475;BME280;6302;42.624;23.334;2022-11-14T05:42:17;94257.53;;;4.35;100.00
12475;BME280;6302;42.624;23.334;2022-11-14T05:44:43;94259.28;;;4.31;100.00
12475;BME280;6302;42.624;23.334;2022-11-14T05:47:12;94257.88;;;4.21;100.00
12475;BME280;6302;42.624;23.334;2022-11-14T05:49:38;94257.88;;;4.21;100.00
12475;BME280;6302;42.624;23.334;2022-11-14T05:52:05;94258.72;;;4.25;100.00
12475;BME280;6302;42.624;23.334;2022-11-14T05:54:32;94253.81;;;4.24;100.00
12475;BME280;6302;42.624;23.334;2022-11-14T05:56:58;94264.97;;;4.21;100.00
12475;BME280;6302;42.624;23.334;2022-11-14T05:59:25;94263.97;;;4.25;100.00
12475;BME280;6302;42.624;23.334;2022-11-14T06:01:53;94263.34;;;4.28;100.00
12475;BME280;6302;42.624;23.334;2022-11-14T06:04:21;94267.59;;;4.33;100.00
12475;BME280;6302;42.624;23.334;2022-11-14T06:06:48;94268.59;;;4.28;100.00
12475;BME280;6302;42.624;23.334;2022-11-14T06:09:15;94265.53;;;4.26;100.00
12475;BME280;6302;42.624;23.334;2022-11-14T06:11:41;94267.03;;;4.27;100.00
12475;BME280;6302;42.624;23.334;2022-11-14T06:14:08;94275.13;;;4.22;100.00
12475;BME280;6302;42.624;23.334;2022-11-14T06:16:35;94271.97;;;4.17;100.00
12475;BME280;6302;42.624;23.334;2022-11-14T06:19:02;94283.75;;;4.23;100.00
12475;BME280;6302;42.624;23.334;2022-11-14T06:21:31;94280.16;;;4.27;100.00
12475;BME280;6302;42.624;23.334;2022-11-14T06:23:57;94277.66;;;4.07;100.00
12475;BME280;6302;42.624;23.334;2022-11-14T06:26:28;94274.91;;;4.15;100.00
12475;BME280;6302;42.624;23.334;2022-11-14T06:28:56;94270.75;;;4.02;100.00
12475;BME280;6302;42.624;23.334;2022-11-14T06:31:23;94272.41;;;4.07;100.00
12475;BME280;6302;42.624;23.334;2022-11-14T06:33:51;94279.16;;;4.08;100.00
12475;BME280;6302;42.624;23.334;2022-11-14T06:36:17;94277.00;;;4.10;100.00
12475;BME280;6302;42.624;23.334;2022-11-14T06:38:47;94279.41;;;4.15;100.00
12475;BME280;6302;42.624;23.334;2022-11-14T06:41:15;94274.25;;;4.18;100.00
12475;BME280;6302;42.624;23.334;2022-11-14T06:43:43;94274.47;;;4.25;100.00
12475;BME280;6302;42.624;23.334;2022-11-14T06:46:12;94269.44;;;4.08;100.00
12475;BME280;6302;42.624;23.334;2022-11-14T06:48:39;94271.28;;;4.08;100.00
12475;BME280;6302;42.624;23.334;2022-11-14T06:51:06;94269.22;;;4.13;100.00
12475;BME280;6302;42.624;23.334;2022-11-14T06:53:34;94265.84;;;4.25;100.00
12475;BME280;6302;42.624;23.334;2022-11-14T06:56:04;94264.53;;;4.31;100.00
12475;BME280;6302;42.624;23.334;2022-11-14T06:58:32;94264.44;;;4.39;100.00
12475;BME280;6302;42.624;23.334;2022-11-14T07:01:04;94269.00;;;4.42;100.00
12475;BME280;6302;42.624;23.334;2022-11-14T07:03:31;94260.13;;;4.47;100.00
12475;BME280;6302;42.624;23.334;2022-11-14T07:05:58;94259.50;;;4.50;100.00
12475;BME280;6302;42.624;23.334;2022-11-14T07:08:25;94265.09;;;4.48;100.00
12475;BME280;6302;42.624;23.334;2022-11-14T07:10:52;94257.84;;;4.45;100.00
12475;BME280;6302;42.624;23.334;2022-11-14T07:13:20;94257.44;;;4.43;100.00
12475;BME280;6302;42.624;23.334;2022-11-14T07:15:50;94263.09;;;4.45;100.00
12475;BME280;6302;42.624;23.334;2022-11-14T07:18:17;94259.38;;;4.58;100.00
12475;BME280;6302;42.624;23.334;2022-11-14T07:20:44;94262.22;;;4.66;100.00
12475;BME280;6302;42.624;23.334;2022-11-14T07:23:11;94261.75;;;4.76;100.00
12475;BME280;6302;42.624;23.334;2022-11-14T07:25:38;94257.25;;;4.88;100.00
12475;BME280;6302;42.624;23.334;2022-11-14T07:28:06;94259.53;;;4.90;100.00
12475;BME280;6302;42.624;23.334;2022-11-14T07:30:34;94260.88;;;4.84;100.00
12475;BME280;6302;42.624;23.334;2022-11-14T07:33:01;94258.69;;;4.86;100.00
12475;BME280;6302;42.624;23.334;2022-11-14T07:35:27;94264.47;;;4.91;100.00
12475;BME280;6302;42.624;23.334;2022-11-14T07:38:00;94250.53;;;5.03;100.00
12475;BME280;6302;42.624;23.334;2022-11-14T07:40:27;94255.19;;;5.21;100.00
12475;BME280;6302;42.624;23.334;2022-11-14T07:42:56;94255.53;;;5.20;100.00
12475;BME280;6302;42.624;23.334;2022-11-14T07:45:24;94253.66;;;5.20;100.00
12475;BME280;6302;42.624;23.334;2022-11-14T07:47:55;94244.34;;;5.23;100.00
12475;BME280;6302;42.624;23.334;2022-11-14T07:50:22;94252.94;;;5.36;100.00
12475;BME280;6302;42.624;23.334;2022-11-14T07:52:50;94256.25;;;5.48;100.00
12475;BME280;6302;42.624;23.334;2022-11-14T07:55:17;94252.19;;;5.51;100.00
12475;BME280;6302;42.624;23.334;2022-11-14T07:57:44;94252.53;;;5.49;100.00
12475;BME280;6302;42.624;23.334;2022-11-14T08:00:12;94250.34;;;5.51;100.00
12475;BME280;6302;42.624;23.334;2022-11-14T08:02:39;94248.25;;;5.57;100.00
12475;BME280;6302;42.624;23.334;2022-11-14T08:05:10;94249.00;;;5.57;100.00
12475;BME280;6302;42.624;23.334;2022-11-14T08:07:37;94259.34;;;5.50;100.00
12475;BME280;6302;42.624;23.334;2022-11-14T08:10:04;94254.47;;;5.37;100.00
12475;BME280;6302;42.624;23.334;2022-11-14T08:12:31;94251.69;;;5.45;100.00
12475;BME280;6302;42.624;23.334;2022-11-14T08:14:58;94247.88;;;5.43;100.00
12475;BME280;6302;42.624;23.334;2022-11-14T08:17:25;94252.44;;;5.46;100.00
12475;BME280;6302;42.624;23.334;2022-11-14T08:19:52;94246.19;;;5.50;100.00
12475;BME280;6302;42.624;23.334;2022-11-14T08:22:20;94240.09;;;5.62;100.00
12475;BME280;6302;42.624;23.334;2022-11-14T08:24:46;94249.78;;;5.73;100.00
12475;BME280;6302;42.624;23.334;2022-11-14T08:27:13;94247.31;;;5.80;100.00
12475;BME280;6302;42.624;23.334;2022-11-14T08:29:40;94242.31;;;5.87;100.00
12475;BME280;6302;42.624;23.334;2022-11-14T08:32:07;94237.63;;;5.97;100.00
12475;BME280;6302;42.624;23.334;2022-11-14T08:34:34;94241.25;;;6.08;100.00
12475;BME280;6302;42.624;23.334;2022-11-14T08:37:01;94243.63;;;6.13;100.00
12475;BME280;6302;42.624;23.334;2022-11-14T08:39:29;94241.16;;;6.20;100.00
12475;BME280;6302;42.624;23.334;2022-11-14T08:41:56;94241.16;;;6.20;100.00
12475;BME280;6302;42.624;23.334;2022-11-14T08:44:23;94245.50;;;6.28;100.00
12475;BME280;6302;42.624;23.334;2022-11-14T08:46:50;94250.25;;;6.38;100.00
12475;BME280;6302;42.624;23.334;2022-11-14T08:49:16;94244.63;;;6.39;100.00
12475;BME280;6302;42.624;23.334;2022-11-14T08:51:43;94237.66;;;6.47;100.00
12475;BME280;6302;42.624;23.334;2022-11-14T08:54:10;94233.00;;;6.40;100.00
12475;BME280;6302;42.624;23.334;2022-11-14T08:56:38;94228.09;;;6.39;100.00
12475;BME280;6302;42.624;23.334;2022-11-14T08:59:05;94233.16;;;6.47;100.00
12475;BME280;6302;42.624;23.334;2022-11-14T09:01:32;94228.94;;;6.43;100.00
12475;BME280;6302;42.624;23.334;2022-11-14T09:03:59;94221.44;;;6.45;100.00
12475;BME280;6302;42.624;23.334;2022-11-14T09:06:26;94219.81;;;6.56;100.00
12475;BME280;6302;42.624;23.334;2022-11-14T09:08:53;94215.84;;;6.46;100.00
12475;BME280;6302;42.624;23.334;2022-11-14T09:11:20;94210.81;;;6.57;100.00
12475;BME280;6302;42.624;23.334;2022-11-14T09:13:48;94208.44;;;6.52;100.00
12475;BME280;6302;42.624;23.334;2022-11-14T09:16:15;94197.47;;;6.66;100.00
12475;BME280;6302;42.624;23.334;2022-11-14T09:18:42;94198.38;;;6.73;100.00
12475;BME280;6302;42.624;23.334;2022-11-14T09:21:09;94187.06;;;6.73;100.00
12475;BME280;6302;42.624;23.334;2022-11-14T09:23:37;94182.28;;;6.78;100.00
12475;BME280;6302;42.624;23.334;2022-11-14T09:26:05;94183.47;;;6.81;100.00
12475;BME280;6302;42.624;23.334;2022-11-14T09:28:32;94190.88;;;6.75;100.00
12475;BME280;6302;42.624;23.334;2022-11-14T09:31:01;94191.69;;;6.79;100.00
12475;BME280;6302;42.624;23.334;2022-11-14T09:33:28;94186.16;;;6.84;100.00
12475;BME280;6302;42.624;23.334;2022-11-14T09:35:56;94194.38;;;6.98;100.00
12475;BME280;6302;42.624;23.334;2022-11-14T09:38:23;94185.75;;;7.01;100.00
12475;BME280;6302;42.624;23.334;2022-11-14T09:40:58;94177.25;;;7.08;100.00
12475;BME280;6302;42.624;23.334;2022-11-14T09:43:41;94185.03;;;7.23;100.00
12475;BME280;6302;42.624;23.334;2022-11-14T09:46:17;94187.41;;;7.29;100.00
12475;BME280;6302;42.624;23.334;2022-11-14T09:48:46;94182.28;;;7.36;100.00
12475;BME280;6302;42.624;23.334;2022-11-14T09:51:15;94176.84;;;7.48;100.00
12475;BME280;6302;42.624;23.334;2022-11-14T09:53:48;94178.34;;;7.49;100.00
12475;BME280;6302;42.624;23.334;2022-11-14T09:56:20;94166.75;;;7.53;100.00
12475;BME280;6302;42.624;23.334;2022-11-14T09:58:49;94171.34;;;7.56;100.00
12475;BME280;6302;42.624;23.334;2022-11-14T10:01:28;94167.72;;;7.87;100.00
12475;BME280;6302;42.624;23.334;2022-11-14T10:04:03;94167.34;;;7.88;100.00
12475;BME280;6302;42.624;23.334;2022-11-14T10:06:44;94158.16;;;8.05;100.00
12475;BME280;6302;42.624;23.334;2022-11-14T10:09:28;94158.34;;;8.16;100.00
12475;BME280;6302;42.624;23.334;2022-11-14T10:12:03;94154.22;;;8.18;100.00
12475;BME280;6302;42.624;23.334;2022-11-14T10:14:43;94146.00;;;8.23;100.00
12475;BME280;6302;42.624;23.334;2022-11-14T10:17:28;94140.09;;;8.30;100.00
12475;BME280;6302;42.624;23.334;2022-11-14T10:20:02;94137.34;;;8.49;100.00
12475;BME280;6302;42.624;23.334;2022-11-14T10:22:48;94135.22;;;8.62;100.00
12475;BME280;6302;42.624;23.334;2022-11-14T10:25:23;94134.72;;;8.79;100.00
12475;BME280;6302;42.624;23.334;2022-11-14T10:28:04;94124.53;;;8.81;100.00
12475;BME280;6302;42.624;23.334;2022-11-14T10:30:37;94128.06;;;8.92;100.00
12475;BME280;6302;42.624;23.334;2022-11-14T10:33:19;94133.94;;;9.11;100.00
12475;BME280;6302;42.624;23.334;2022-11-14T10:35:54;94125.22;;;9.11;100.00
12475;BME280;6302;42.624;23.334;2022-11-14T10:38:28;94125.34;;;9.18;100.00
12475;BME280;6302;42.624;23.334;2022-11-14T10:40:59;94127.34;;;9.28;100.00
12475;BME280;6302;42.624;23.334;2022-11-14T10:43:32;94112.34;;;9.43;100.00
12475;BME280;6302;42.624;23.334;2022-11-14T10:46:04;94121.91;;;9.54;100.00
12475;BME280;6302;42.624;23.334;2022-11-14T10:48:36;94122.03;;;9.68;100.00
12475;BME280;6302;42.624;23.334;2022-11-14T10:51:09;94110.34;;;9.73;100.00
12475;BME280;6302;42.624;23.334;2022-11-14T10:53:50;94108.56;;;9.88;100.00
12475;BME280;6302;42.624;23.334;2022-11-14T10:56:19;94102.59;;;9.98;100.00
12475;BME280;6302;42.624;23.334;2022-11-14T10:58:46;94101.16;;;10.11;100.00
12475;BME280;6302;42.624;23.334;2022-11-14T11:01:33;94103.16;;;10.21;100.00
12475;BME280;6302;42.624;23.334;2022-11-14T11:04:13;94098.31;;;10.37;100.00
12475;BME280;6302;42.624;23.334;2022-11-14T11:06:40;94093.81;;;10.41;100.00
12475;BME280;6302;42.624;23.334;2022-11-14T11:09:10;94081.72;;;10.47;100.00
12475;BME280;6302;42.624;23.334;2022-11-14T11:11:58;94089.34;;;10.59;100.00
12475;BME280;6302;42.624;23.334;2022-11-14T11:14:26;94086.41;;;10.71;100.00
12475;BME280;6302;42.624;23.334;2022-11-14T11:17:07;94095.50;;;10.77;100.00
12475;BME280;6302;42.624;23.334;2022-11-14T11:19:42;94087.19;;;10.89;100.00
12475;BME280;6302;42.624;23.334;2022-11-14T11:22:24;94090.66;;;11.00;100.00
12475;BME280;6302;42.624;23.334;2022-11-14T11:24:51;94077.41;;;11.07;100.00
12475;BME280;6302;42.624;23.334;2022-11-14T11:27:23;94080.88;;;11.26;100.00
12475;BME280;6302;42.624;23.334;2022-11-14T11:30:08;94075.94;;;11.28;100.00
12475;BME280;6302;42.624;23.334;2022-11-14T11:32:42;94079.75;;;11.23;100.00
12475;BME280;6302;42.624;23.334;2022-11-14T11:35:13;94075.56;;;11.36;100.00
12475;BME280;6302;42.624;23.334;2022-11-14T11:37:43;94070.28;;;11.54;100.00
12475;BME280;6302;42.624;23.334;2022-11-14T11:40:17;94082.06;;;11.53;100.00
12475;BME280;6302;42.624;23.334;2022-11-14T11:42:48;94079.78;;;11.48;100.00
12475;BME280;6302;42.624;23.334;2022-11-14T11:45:19;94071.81;;;11.55;100.00
12475;BME280;6302;42.624;23.334;2022-11-14T11:47:51;94076.75;;;11.63;100.00
12475;BME280;6302;42.624;23.334;2022-11-14T11:50:23;94072.19;;;11.64;100.00
12475;BME280;6302;42.624;23.334;2022-11-14T11:52:59;94069.19;;;11.69;100.00
12475;BME280;6302;42.624;23.334;2022-11-14T11:55:31;94069.91;;;11.66;100.00
12475;BME280;6302;42.624;23.334;2022-11-14T11:58:03;94062.34;;;11.64;100.00
12475;BME280;6302;42.624;23.334;2022-11-14T12:00:31;94055.91;;;11.76;100.00
12475;BME280;6302;42.624;23.334;2022-11-14T12:02:59;94057.78;;;11.93;100.00
12475;BME280;6302;42.624;23.334;2022-11-14T12:05:36;94059.69;;;12.07;100.00
12475;BME280;6302;42.624;23.334;2022-11-14T12:08:11;94066.88;;;12.03;100.00
12475;BME280;6302;42.624;23.334;2022-11-14T12:10:40;94057.03;;;11.86;100.00
12475;BME280;6302;42.624;23.334;2022-11-14T12:13:33;94054.78;;;11.95;100.00
12475;BME280;6302;42.624;23.334;2022-11-14T12:16:17;94048.69;;;11.94;100.00
12475;BME280;6302;42.624;23.334;2022-11-14T12:22:16;94041.47;;;12.05;100.00
12475;BME280;6302;42.624;23.334;2022-11-14T12:25:00;94040.31;;;12.06;100.00
12475;BME280;6302;42.624;23.334;2022-11-14T12:27:41;94038.78;;;12.12;100.00
12475;BME280;6302;42.624;23.334;2022-11-14T12:30:17;94046.38;;;12.17;100.00
12475;BME280;6302;42.624;23.334;2022-11-14T12:32:48;94038.75;;;12.30;100.00
12475;BME280;6302;42.624;23.334;2022-11-14T12:35:20;94036.44;;;12.43;100.00
12475;BME280;6302;42.624;23.334;2022-11-14T12:37:52;94030.31;;;12.53;100.00
12475;BME280;6302;42.624;23.334;2022-11-14T12:40:25;94032.59;;;12.58;100.00
12475;BME280;6302;42.624;23.334;2022-11-14T12:42:53;94032.97;;;12.56;100.00
12475;BME280;6302;42.624;23.334;2022-11-14T12:45:54;94032.63;;;12.51;100.00
12475;BME280;6302;42.624;23.334;2022-11-14T12:48:28;94026.53;;;12.54;100.00
12475;BME280;6302;42.624;23.334;2022-11-14T12:50:56;94029.59;;;12.49;100.00
12475;BME280;6302;42.624;23.334;2022-11-14T12:53:41;94023.13;;;12.50;100.00
12475;BME280;6302;42.624;23.334;2022-11-14T12:56:20;94015.13;;;12.50;100.00
12475;BME280;6302;42.624;23.334;2022-11-14T12:59:25;94020.44;;;12.57;100.00
12475;BME280;6302;42.624;23.334;2022-11-14T13:02:12;94021.19;;;12.57;100.00
12475;BME280;6302;42.624;23.334;2022-11-14T13:05:01;94026.53;;;12.54;100.00
12475;BME280;6302;42.624;23.334;2022-11-14T13:07:44;94020.38;;;12.67;100.00
12475;BME280;6302;42.624;23.334;2022-11-14T13:10:21;94007.09;;;12.67;100.00
12475;BME280;6302;42.624;23.334;2022-11-14T13:12:57;94017.34;;;12.72;100.00